Time;durP1;ratioP1;P1;durP2;ratioP2;P2;SDS_P1;SDS_P2;PMS_P1;PMS_P2;Temp;Humidity;BMP_temperature;BMP_pressure;BME280_temperature;BME280_humidity;BME280_pressure;Samples;Min_cycle;Max_cycle;Signal;HPM_P1;HPM_P2
2023/10/12 00:00:56;;;;;;;5.07;3.40;;;;;;;19.05;51.22;95008.59;5034527;28;20206;-83
2023/10/12 00:03:25;;;;;;;4.57;3.55;;;;;;;18.95;51.64;95019.72;5038726;28;20193;-83
2023/10/12 00:05:51;;;;;;;4.00;3.05;;;;;;;18.92;51.74;95035.06;5045121;28;20605;-82
2023/10/12 00:08:30;;;;;;;7.13;3.20;;;;;;;18.89;51.93;95038.94;5044755;28;20202;-82
2023/10/12 00:10:56;;;;;;;5.32;3.17;;;;;;;18.87;52.02;95046.22;5044461;28;20202;-82
2023/10/12 00:13:28;;;;;;;4.70;3.25;;;;;;;18.85;52.11;95042.28;5044174;28;20206;-82
2023/10/12 00:15:56;;;;;;;4.20;3.00;;;;;;;18.89;52.48;95054.59;5044337;28;20233;-82
2023/10/12 00:18:22;;;;;;;3.65;3.13;;;;;;;18.91;52.36;95057.75;5045144;28;20206;-83
2023/10/12 00:20:53;;;;;;;4.18;3.10;;;;;;;18.89;52.58;95078.06;5044866;28;20198;-83
2023/10/12 00:23:19;;;;;;;4.82;3.20;;;;;;;18.85;52.85;95066.56;5050473;28;20221;-82
2023/10/12 00:25:48;;;;;;;5.53;3.33;;;;;;;18.88;52.59;95080.91;5064278;28;20222;-82
2023/10/12 00:28:16;;;;;;;3.83;3.10;;;;;;;18.82;52.99;95090.50;5065090;28;20212;-82
2023/10/12 00:30:46;;;;;;;3.45;3.15;;;;;;;18.86;52.69;95070.72;5064179;28;20574;-83
2023/10/12 00:33:13;;;;;;;6.40;3.35;;;;;;;18.84;52.79;95069.41;5052967;28;20262;-83
2023/10/12 00:35:40;;;;;;;7.38;3.70;;;;;;;18.88;52.43;95055.63;5043614;28;20234;-82
2023/10/12 00:38:17;;;;;;;5.28;2.83;;;;;;;18.92;52.32;95048.09;5043515;28;20194;-83
2023/10/12 00:40:51;;;;;;;7.72;3.15;;;;;;;18.95;52.47;95051.03;5043330;28;20229;-83
2023/10/12 00:43:17;;;;;;;3.67;3.00;;;;;;;19.03;52.05;95030.78;5023741;28;20206;-83
2023/10/12 00:45:45;;;;;;;4.82;2.92;;;;;;;19.06;52.10;95022.44;5023177;28;20227;-83
2023/10/12 00:48:16;;;;;;;5.75;3.17;;;;;;;19.01;52.27;95023.19;5022712;28;20674;-83
2023/10/12 00:50:44;;;;;;;4.75;3.10;;;;;;;19.02;52.19;95021.38;5023129;28;20210;-83
2023/10/12 00:53:22;;;;;;;3.45;3.10;;;;;;;18.99;52.52;95043.50;5022933;28;20206;-83
2023/10/12 00:55:49;;;;;;;4.32;3.38;;;;;;;19.02;52.29;95034.41;5022731;28;20290;-83
2023/10/12 00:58:17;;;;;;;5.95;3.42;;;;;;;19.08;51.91;95026.38;5038379;28;20206;-83
2023/10/12 01:00:45;;;;;;;5.75;3.38;;;;;;;19.08;51.90;95020.38;5038719;28;20285;-83
2023/10/12 01:03:31;;;;;;;4.07;3.40;;;;;;;19.11;51.71;94999.03;5041189;28;20232;-83
2023/10/12 01:06:15;;;;;;;9.07;3.03;;;;;;;19.13;51.68;94996.97;5042033;28;20236;-83
2023/10/12 01:08:43;;;;;;;5.78;3.15;;;;;;;19.12;51.61;94990.94;5042841;28;20208;-83
2023/10/12 01:11:17;;;;;;;8.85;3.28;;;;;;;19.08;51.84;94989.84;5042757;28;20639;-83
2023/10/12 01:13:44;;;;;;;5.45;2.92;;;;;;;19.05;51.73;94994.78;5042275;28;20233;-83
2023/10/12 01:16:21;;;;;;;7.47;3.58;;;;;;;18.99;51.66;94980.91;5042185;28;20233;-83
2023/10/12 01:18:57;;;;;;;4.38;2.90;;;;;;;19.07;51.65;94977.84;5041793;28;20212;-83
2023/10/12 01:21:23;;;;;;;7.32;3.63;;;;;;;19.13;51.29;94971.66;5042117;28;20618;-83
2023/10/12 01:23:51;;;;;;;6.05;3.53;;;;;;;19.08;51.72;94989.06;5050934;28;20197;-83
2023/10/12 01:26:18;;;;;;;4.35;3.20;;;;;;;19.05;51.59;94972.06;5061514;28;20225;-81
2023/10/12 01:28:49;;;;;;;5.15;3.30;;;;;;;19.08;51.47;94974.19;5062402;28;20213;-82
2023/10/12 01:31:24;;;;;;;5.82;3.28;;;;;;;19.10;51.51;94966.13;5062015;28;20247;-82
2023/10/12 01:33:54;;;;;;;6.65;3.38;;;;;;;19.10;51.28;94966.13;5044454;28;20202;-83
2023/10/12 01:36:21;;;;;;;5.70;2.88;;;;;;;19.09;51.26;94957.50;5042790;28;20224;-83
2023/10/12 01:38:47;;;;;;;4.38;3.15;;;;;;;19.11;51.33;94954.66;5041677;28;20217;-83
2023/10/12 01:41:25;;;;;;;3.55;2.80;;;;;;;19.12;51.42;94966.66;5037473;28;20687;-82
2023/10/12 01:43:52;;;;;;;8.10;3.13;;;;;;;19.17;51.20;94959.69;5022198;28;20199;-82
2023/10/12 01:46:21;;;;;;;4.35;3.05;;;;;;;19.21;51.17;94960.78;5021753;28;20219;-83
2023/10/12 01:48:49;;;;;;;7.15;3.35;;;;;;;19.28;51.04;94957.97;5022417;28;20460;-83
2023/10/12 01:51:24;;;;;;;5.47;3.20;;;;;;;19.33;50.79;94950.97;5022784;28;20215;-82
2023/10/12 01:53:50;;;;;;;4.97;3.00;;;;;;;19.31;50.82;94939.22;5035388;28;20292;-83
2023/10/12 01:56:18;;;;;;;7.35;3.42;;;;;;;19.35;50.51;94940.28;5034390;28;20218;-83
2023/10/12 01:58:48;;;;;;;7.00;3.33;;;;;;;19.42;50.37;94933.06;5041676;28;20206;-83
2023/10/12 02:01:18;;;;;;;6.75;3.35;;;;;;;19.43;50.00;94923.41;5042836;28;20234;-82
2023/10/12 02:03:47;;;;;;;6.43;3.00;;;;;;;19.46;49.87;94907.22;5042199;28;20205;-81
2023/10/12 02:06:19;;;;;;;7.03;2.75;;;;;;;19.51;50.13;94921.16;5040388;28;20226;-82
2023/10/12 02:08:46;;;;;;;5.30;2.97;;;;;;;19.53;50.27;94918.28;5034077;28;20201;-82
2023/10/12 02:11:26;;;;;;;4.65;2.80;;;;;;;19.52;49.97;94909.66;5021921;28;20207;-83
2023/10/12 02:13:55;;;;;;;6.30;2.85;;;;;;;19.51;50.13;94915.94;5020779;28;20252;-82
2023/10/12 02:16:25;;;;;;;3.67;2.95;;;;;;;19.49;50.00;94911.97;5021733;28;20226;-82
2023/10/12 02:18:53;;;;;;;6.13;3.10;;;;;;;19.48;49.90;94903.34;5020987;28;20203;-82
2023/10/12 02:21:21;;;;;;;6.07;2.80;;;;;;;19.46;50.09;94913.22;5020850;28;20202;-83
2023/10/12 02:23:56;;;;;;;6.07;2.90;;;;;;;19.47;50.11;94916.63;5040252;28;20197;-83
2023/10/12 02:26:35;;;;;;;7.22;3.15;;;;;;;19.47;50.31;94925.25;5060313;28;20221;-82
2023/10/12 02:29:12;;;;;;;4.40;2.78;;;;;;;19.45;50.49;94931.75;5061009;28;20322;-83
2023/10/12 02:31:45;;;;;;;9.35;3.40;;;;;;;19.43;50.38;94929.41;5061717;28;20583;-83
2023/10/12 02:34:16;;;;;;;5.18;3.05;;;;;;;19.45;50.44;94937.75;5042039;28;20198;-83
2023/10/12 02:36:46;;;;;;;9.27;3.30;;;;;;;19.45;50.62;94945.59;5040401;28;20230;-82
2023/10/12 02:39:20;;;;;;;3.55;2.95;;;;;;;19.44;50.81;94953.69;5040546;28;20234;-82
2023/10/12 02:41:52;;;;;;;8.20;3.10;;;;;;;19.37;50.93;94955.72;5030788;28;20199;-81
2023/10/12 02:44:20;;;;;;;6.07;2.92;;;;;;;19.32;51.06;94956.44;5019317;28;20199;-82
2023/10/12 02:47:00;;;;;;;7.70;2.97;;;;;;;19.31;50.82;94950.44;5020078;28;20223;-81
2023/10/12 02:49:28;;;;;;;6.90;3.25;;;;;;;19.31;50.83;94947.03;5027848;28;20253;-82
2023/10/12 02:51:54;;;;;;;5.15;3.08;;;;;;;19.30;50.79;94943.63;5031476;28;20203;-83
2023/10/12 02:54:26;;;;;;;6.40;3.25;;;;;;;19.27;51.18;94961.59;5038917;28;20711;-81
2023/10/12 02:56:56;;;;;;;5.15;3.00;;;;;;;19.21;51.29;94967.84;5039452;28;20297;-82
2023/10/12 02:59:25;;;;;;;5.32;2.90;;;;;;;19.18;51.42;94976.16;5039818;28;20198;-82
2023/10/12 03:02:12;;;;;;;6.18;3.50;;;;;;;19.14;51.50;94977.66;5039453;28;20270;-81
2023/10/12 03:04:39;;;;;;;6.18;2.75;;;;;;;19.13;51.31;94976.09;5038510;28;20202;-81
2023/10/12 03:07:13;;;;;;;5.95;3.03;;;;;;;19.12;51.26;94972.69;5039476;28;20226;-82
2023/10/12 03:09:44;;;;;;;6.10;2.67;;;;;;;19.06;51.58;94985.91;5040095;28;20267;-81
2023/10/12 03:12:11;;;;;;;5.60;2.95;;;;;;;19.04;51.66;94993.22;5039837;28;20202;-82
2023/10/12 03:14:40;;;;;;;7.40;2.95;;;;;;;19.01;51.87;94991.88;5039020;28;20202;-82
2023/10/12 03:17:09;;;;;;;5.75;2.88;;;;;;;18.99;51.76;94999.16;5039498;28;20214;-83
2023/10/12 03:19:39;;;;;;;5.13;2.75;;;;;;;18.95;51.95;95004.06;5038114;28;20201;-82
2023/10/12 03:22:19;;;;;;;5.90;3.00;;;;;;;18.94;52.02;95015.53;5038587;28;20232;-82
2023/10/12 03:24:51;;;;;;;6.50;3.30;;;;;;;18.91;51.89;95002.97;5053886;28;20198;-82
2023/10/12 03:27:19;;;;;;;5.07;3.10;;;;;;;18.87;52.09;95004.47;5058147;28;20344;-82
2023/10/12 03:29:54;;;;;;;4.13;2.85;;;;;;;18.86;52.26;95017.75;5058433;28;20350;-81
2023/10/12 03:32:23;;;;;;;4.95;2.78;;;;;;;18.83;52.00;95015.66;5053376;28;20198;-81
2023/10/12 03:34:56;;;;;;;5.53;2.88;;;;;;;18.81;52.01;95017.72;5032268;28;20206;-82
2023/10/12 03:40:48;;;;;;;5.25;3.00;;;;;;;18.83;51.93;95000.78;5011251;28;20204;-82
2023/10/12 03:42:52;;;;;;;7.32;3.10;;;;;;;18.85;51.85;94997.94;5014326;28;20199;-82
2023/10/12 03:45:26;;;;;;;4.38;3.10;;;;;;;18.80;52.12;95003.09;5018207;28;20252;-81
2023/10/12 03:48:14;;;;;;;4.57;2.97;;;;;;;18.75;52.01;94993.38;5024160;28;20284;-82
2023/10/12 03:50:53;;;;;;;7.30;2.95;;;;;;;18.76;52.04;94991.56;5033369;28;20205;-82
2023/10/12 03:53:26;;;;;;;5.22;3.05;;;;;;;18.70;52.32;95006.34;5032015;28;20535;-82
2023/10/12 03:55:57;;;;;;;5.80;3.17;;;;;;;18.60;52.49;95025.25;5032058;28;20242;-81
2023/10/12 03:58:24;;;;;;;7.65;3.05;;;;;;;18.62;52.41;95014.59;5031416;28;20240;-82
2023/10/12 04:01:10;;;;;;;4.07;2.78;;;;;;;18.61;52.43;95008.59;5032149;28;20263;-81
2023/10/12 04:03:40;;;;;;;4.88;3.20;;;;;;;18.69;52.04;95001.38;5032247;28;20202;-81
2023/10/12 04:06:23;;;;;;;7.07;3.20;;;;;;;18.67;51.97;94999.00;5030584;28;20230;-81
2023/10/12 04:08:54;;;;;;;6.43;3.05;;;;;;;18.68;51.91;94989.34;5031403;28;20222;-81
2023/10/12 04:14:43;;;;;;;5.72;3.05;;;;;;;18.77;51.52;94972.28;5031145;28;20287;-81
2023/10/12 04:17:09;;;;;;;5.50;3.10;;;;;;;18.77;51.50;94969.66;5030909;28;20222;-81
2023/10/12 04:19:39;;;;;;;4.88;2.78;;;;;;;18.81;51.17;94955.13;5030618;28;20240;-82
2023/10/12 04:22:16;;;;;;;6.97;3.60;;;;;;;18.77;51.58;94975.66;5031516;28;20214;-82
2023/10/12 04:24:48;;;;;;;7.47;3.65;;;;;;;18.80;51.61;94971.78;5037744;28;20198;-81
2023/10/12 04:29:59;;;;;;;4.68;3.13;;;;;;;18.89;50.91;94942.41;5007619;28;20227;-82
2023/10/12 04:32:51;;;;;;;5.72;3.00;;;;;;;18.96;50.80;94940.41;5031368;28;20194;-81
2023/10/12 04:35:22;;;;;;;5.63;3.70;;;;;;;19.01;50.70;94933.69;5030761;28;20202;-81
2023/10/12 04:37:48;;;;;;;6.03;3.20;;;;;;;19.02;50.19;94909.19;5034930;28;20198;-81
2023/10/12 04:43:04;;;;;;;8.68;3.53;;;;;;;19.05;51.24;94979.13;5028792;28;20700;-81
2023/10/12 04:45:44;;;;;;;12.73;5.43;;;;;;;19.03;52.40;95017.72;5020306;28;20261;-82
2023/10/12 04:48:18;;;;;;;8.10;4.07;;;;;;;19.09;51.29;94977.59;5033205;28;20308;-81
2023/10/12 04:50:44;;;;;;;8.25;3.90;;;;;;;19.12;50.93;94958.84;5026138;28;20755;-81
2023/10/12 04:53:14;;;;;;;8.27;3.38;;;;;;;19.11;50.95;94962.50;5023855;28;20657;-81
2023/10/12 04:55:47;;;;;;;10.82;3.33;;;;;;;19.09;50.79;94957.50;5023281;28;20202;-80
2023/10/12 04:58:30;;;;;;;7.53;3.15;;;;;;;19.08;50.46;94929.06;5032849;28;20210;-81
2023/10/12 05:01:12;;;;;;;5.75;3.22;;;;;;;19.13;50.57;94942.16;5027687;28;20194;-81
2023/10/12 05:03:41;;;;;;;7.50;3.20;;;;;;;19.15;50.66;94940.88;5035022;28;20281;-81
2023/10/12 05:06:08;;;;;;;5.20;3.28;;;;;;;19.14;50.82;94947.13;5035175;28;20226;-80
2023/10/12 05:08:36;;;;;;;5.50;3.08;;;;;;;19.18;50.67;94950.03;5036549;28;20226;-81
2023/10/12 05:11:06;;;;;;;6.65;3.20;;;;;;;19.15;50.90;94961.75;5036041;28;20210;-82
2023/10/12 05:13:33;;;;;;;4.13;3.13;;;;;;;19.16;50.99;94965.16;5036020;28;20198;-82
2023/10/12 05:16:05;;;;;;;6.43;3.22;;;;;;;19.18;51.14;94968.31;5035944;28;20229;-81
2023/10/12 05:18:32;;;;;;;5.43;3.15;;;;;;;19.18;50.88;94963.09;5035594;28;20202;-81
2023/10/12 05:21:01;;;;;;;9.13;3.10;;;;;;;19.15;50.85;94958.34;5035509;28;20198;-81
2023/10/12 05:23:29;;;;;;;5.38;3.20;;;;;;;19.13;50.88;94968.25;5040874;28;20197;-82
2023/10/12 05:26:07;;;;;;;4.30;3.25;;;;;;;19.14;51.03;94962.00;5042810;28;20256;-80
2023/10/12 05:28:43;;;;;;;5.70;3.72;;;;;;;19.14;51.32;94985.50;5055634;28;20239;-81
2023/10/12 05:31:13;;;;;;;5.82;3.15;;;;;;;19.09;51.44;94991.44;5048905;28;20330;-81
2023/10/12 05:33:43;;;;;;;4.95;3.40;;;;;;;19.04;51.36;94991.41;5034087;28;20198;-81
2023/10/12 05:36:12;;;;;;;5.30;3.53;;;;;;;19.04;51.53;94999.22;5034502;28;20415;-82
2023/10/12 05:38:40;;;;;;;6.15;3.50;;;;;;;19.05;51.06;94990.34;5034369;28;20198;-81
2023/10/12 05:41:09;;;;;;;5.25;3.70;;;;;;;19.04;51.61;94998.44;5021429;28;20190;-79
2023/10/12 05:43:39;;;;;;;13.15;4.40;;;;;;;19.20;59.09;95348.13;5013352;28;20195;-79
2023/10/12 05:46:13;;;;;;;9.75;4.13;;;;;;;19.41;58.32;95328.34;5022269;28;20211;-79
2023/10/12 05:48:45;;;;;;;12.77;4.90;;;;;;;19.64;56.66;95259.47;5020428;28;20268;-82
2023/10/12 05:51:14;;;;;;;11.18;3.92;;;;;;;19.80;55.13;95200.41;5020853;28;20199;-79
2023/10/12 05:53:40;;;;;;;9.40;4.22;;;;;;;19.82;53.77;95110.28;5022497;28;20199;-79
2023/10/12 05:56:07;;;;;;;7.57;4.15;;;;;;;19.83;52.34;95064.81;5021052;28;20214;-79
2023/10/12 05:58:35;;;;;;;14.63;5.05;;;;;;;19.92;52.84;95088.69;5022038;28;20194;-79
2023/10/12 06:01:08;;;;;;;11.90;4.05;;;;;;;19.95;52.66;95073.31;5031291;28;20262;-78
2023/10/12 06:03:36;;;;;;;8.05;3.70;;;;;;;20.00;52.70;95070.75;5022146;28;20230;-78
2023/10/12 06:06:02;;;;;;;9.73;4.10;;;;;;;20.10;52.36;95072.66;5043731;28;20232;-79
2023/10/12 06:08:32;;;;;;;10.98;4.10;;;;;;;20.18;52.22;95060.97;5050867;28;20291;-79
2023/10/12 06:10:59;;;;;;;7.30;3.83;;;;;;;20.19;51.36;95018.91;5035085;28;20202;-79
2023/10/12 06:13:31;;;;;;;9.35;3.83;;;;;;;20.23;51.49;95027.00;5030367;28;20234;-79
2023/10/12 06:15:57;;;;;;;10.90;3.70;;;;;;;20.27;51.46;95025.47;5030342;28;20214;-79
2023/10/12 06:18:30;;;;;;;6.35;3.20;;;;;;;20.28;51.10;95017.41;5052575;22;20234;-85
2023/10/12 06:21:05;;;;;;;8.68;4.03;;;;;;;20.33;51.08;95012.22;5032458;28;20208;-86
2023/10/12 06:23:39;;;;;;;18.77;3.67;;;;;;;20.40;51.10;95013.84;5039265;28;20193;-85
2023/10/12 06:26:08;;;;;;;6.10;3.65;;;;;;;20.45;50.70;95009.44;5052494;28;20263;-84
2023/10/12 06:28:38;;;;;;;9.13;3.55;;;;;;;20.48;50.27;94995.84;5049708;28;20692;-85
2023/10/12 06:31:07;;;;;;;7.85;3.83;;;;;;;20.51;50.63;95018.88;5030718;28;20225;-85
2023/10/12 06:33:35;;;;;;;8.60;3.40;;;;;;;20.52;50.88;95033.53;5031074;28;20190;-84
2023/10/12 06:36:03;;;;;;;14.10;4.03;;;;;;;20.56;51.61;95084.31;5022613;28;20199;-83
2023/10/12 06:38:38;;;;;;;7.15;3.83;;;;;;;20.63;51.49;95092.72;5030065;28;20765;-82
2023/10/12 06:43:58;;;;;;;10.90;4.20;;;;;;;20.81;51.11;95073.22;5010468;28;20272;-82
2023/10/12 06:46:27;;;;;;;8.98;4.25;;;;;;;20.93;50.96;95070.41;5015432;28;20194;-82
2023/10/12 06:49:00;;;;;;;11.07;4.35;;;;;;;20.98;50.92;95049.50;5046396;28;20214;-90
2023/10/12 06:51:28;;;;;;;10.13;4.53;;;;;;;20.99;50.61;95048.44;5029019;28;20281;-88
2023/10/12 06:54:06;;;;;;;9.70;3.80;;;;;;;21.00;50.16;95022.03;5029934;28;20209;-83
2023/10/12 06:56:38;;;;;;;13.88;4.43;;;;;;;20.96;49.58;94984.34;5013632;28;20202;-84
2023/10/12 06:59:11;;;;;;;18.02;4.30;;;;;;;20.89;49.44;94982.97;5009875;28;20222;-83
2023/10/12 07:01:39;;;;;;;10.77;4.25;;;;;;;20.86;49.49;94973.81;5020744;28;20198;-84
2023/10/12 07:04:12;;;;;;;10.25;4.20;;;;;;;20.82;49.50;94991.06;5011419;28;20734;-82
2023/10/12 07:06:40;;;;;;;10.48;4.38;;;;;;;20.81;49.45;94991.31;5016930;28;20194;-84
2023/10/12 07:09:07;;;;;;;9.75;4.13;;;;;;;20.94;49.34;94981.19;5030160;28;20725;-82
2023/10/12 07:11:39;;;;;;;7.00;4.10;;;;;;;21.13;48.86;94965.81;5031061;28;20629;-84
2023/10/12 07:14:05;;;;;;;15.38;4.40;;;;;;;21.15;48.85;94968.16;5028230;28;20285;-83
2023/10/12 07:16:36;;;;;;;6.95;4.20;;;;;;;21.19;48.76;94967.38;5030684;28;20198;-83
2023/10/12 07:19:05;;;;;;;9.05;4.28;;;;;;;21.45;48.17;94957.00;5029406;28;20284;-82
2023/10/12 07:21:31;;;;;;;7.15;3.90;;;;;;;21.83;47.56;94940.00;5029796;28;20197;-85
2023/10/12 07:23:57;;;;;;;9.13;3.80;;;;;;;22.32;46.76;94912.16;5040259;28;20256;-84
2023/10/12 07:26:25;;;;;;;9.18;4.28;;;;;;;22.87;46.07;94893.91;5047526;28;20594;-83
2023/10/12 07:28:55;;;;;;;17.17;11.50;;;;;;;23.26;45.57;94863.22;5030042;28;20218;-83
2023/10/12 07:31:38;;;;;;;9.23;7.18;;;;;;;23.65;44.32;94815.91;5025846;28;20273;-84
2023/10/12 07:34:05;;;;;;;8.75;5.35;;;;;;;24.00;44.07;94783.22;5010662;28;20207;-82
2023/10/12 07:36:57;;;;;;;9.07;4.32;;;;;;;24.27;42.94;94737.13;5010006;28;20656;-85
2023/10/12 07:39:37;;;;;;;7.90;4.18;;;;;;;24.43;42.25;94685.91;5024460;28;20202;-83
2023/10/12 07:42:12;;;;;;;4.72;3.35;;;;;;;24.51;41.21;94647.59;5029012;28;20256;-84
2023/10/12 07:44:42;;;;;;;9.07;3.33;;;;;;;24.55;41.27;94644.13;5010970;28;20209;-84
2023/10/12 07:47:14;;;;;;;8.68;3.10;;;;;;;24.50;41.34;94638.94;5010195;28;20223;-84
2023/10/12 07:49:48;;;;;;;9.45;3.70;;;;;;;24.70;41.58;94638.63;5019593;28;20225;-85
2023/10/12 07:52:22;;;;;;;6.72;3.83;;;;;;;24.76;41.04;94626.16;5029617;28;20248;-84
2023/10/12 07:54:56;;;;;;;4.10;3.10;;;;;;;24.70;41.17;94624.66;5029446;28;20237;-84
2023/10/12 07:57:29;;;;;;;7.38;3.30;;;;;;;24.77;41.45;94646.16;5030433;28;20240;-85
2023/10/12 08:00:29;;;;;;;5.25;3.50;;;;;;;24.80;41.49;94627.16;5030415;28;20199;-83
2023/10/12 08:05:58;;;;;;;5.55;3.00;;;;;;;25.08;39.99;94555.03;5029477;28;20220;-83
2023/10/12 08:08:33;;;;;;;4.97;3.00;;;;;;;24.80;40.16;94563.97;5029668;28;20284;-83
2023/10/12 08:11:08;;;;;;;5.43;3.00;;;;;;;24.45;39.85;94549.53;5029910;28;20271;-84
2023/10/12 08:13:39;;;;;;;6.78;3.63;;;;;;;24.16;40.31;94564.72;5033372;28;20292;-83
2023/10/12 08:16:14;;;;;;;5.30;2.90;;;;;;;24.01;40.89;94592.03;5033072;28;20201;-83
2023/10/12 08:18:51;;;;;;;5.43;2.97;;;;;;;23.92;41.34;94597.13;5033141;28;20225;-83
2023/10/12 08:21:26;;;;;;;3.60;2.92;;;;;;;23.87;40.80;94584.03;5032960;28;20234;-83
2023/10/12 08:23:57;;;;;;;7.55;3.00;;;;;;;23.75;41.20;94597.63;5042361;28;20197;-84
2023/10/12 08:26:35;;;;;;;5.50;2.95;;;;;;;23.77;41.15;94603.38;5042323;28;20198;-83
2023/10/12 08:29:09;;;;;;;9.23;3.22;;;;;;;23.80;41.63;94636.22;5024617;28;20218;-85
2023/10/12 08:31:43;;;;;;;6.10;2.97;;;;;;;24.04;41.47;94626.44;5033248;28;20202;-83
2023/10/12 08:34:41;;;;;;;6.43;2.88;;;;;;;24.43;40.50;94594.56;5031907;28;20201;-85
2023/10/12 08:37:17;;;;;;;5.93;3.50;;;;;;;25.06;39.57;94554.53;5032652;28;20293;-84
2023/10/12 08:40:01;;;;;;;7.18;2.95;;;;;;;25.55;38.51;94496.91;5034080;28;20198;-84
2023/10/12 08:42:37;;;;;;;6.72;3.10;;;;;;;26.03;38.13;94492.66;5018518;28;20202;-84
2023/10/12 08:45:08;;;;;;;6.25;2.70;;;;;;;26.26;37.50;94438.03;5018143;28;20224;-85
2023/10/12 08:47:48;;;;;;;6.72;3.30;;;;;;;25.81;36.61;94377.41;5032577;28;20210;-84
2023/10/12 08:53:03;;;;;;;5.45;3.00;;;;;;;25.84;37.41;94434.03;5032540;28;20202;-84
2023/10/12 08:55:32;;;;;;;4.38;2.95;;;;;;;25.20;37.94;94408.88;5033090;28;20252;-84
2023/10/12 08:58:11;;;;;;;3.92;2.92;;;;;;;24.86;38.32;94417.94;5032658;28;20229;-84
2023/10/12 09:00:44;;;;;;;5.60;2.92;;;;;;;25.05;38.17;94441.56;5032962;28;20236;-85
2023/10/12 09:03:27;;;;;;;4.45;3.13;;;;;;;25.17;38.56;94446.34;5032588;28;20213;-83
2023/10/12 09:05:55;;;;;;;4.28;2.72;;;;;;;25.57;38.22;94432.28;5033139;28;20205;-85
2023/10/12 09:08:41;;;;;;;6.05;3.15;;;;;;;25.74;37.51;94384.19;5032397;28;20268;-83
2023/10/12 09:11:17;;;;;;;5.68;3.17;;;;;;;26.10;37.29;94392.00;5033080;28;20202;-84
2023/10/12 09:13:47;;;;;;;5.05;3.05;;;;;;;25.81;37.08;94364.22;5032545;28;20198;-83
2023/10/12 09:16:17;;;;;;;3.70;2.67;;;;;;;25.58;38.02;94389.03;5032424;28;20660;-84
2023/10/12 09:18:46;;;;;;;6.90;3.05;;;;;;;25.31;38.12;94408.34;5032201;28;20774;-84
2023/10/12 09:21:23;;;;;;;5.70;3.08;;;;;;;25.09;38.47;94411.69;5032318;28;20202;-83
2023/10/12 09:23:52;;;;;;;5.22;2.97;;;;;;;25.02;38.74;94437.66;5024562;28;20253;-84
2023/10/12 09:26:30;;;;;;;6.32;3.08;;;;;;;24.91;38.72;94443.41;5024140;28;20225;-84
2023/10/12 09:29:20;;;;;;;4.88;3.15;;;;;;;24.85;39.19;94479.59;5031817;28;20224;-85
2023/10/12 09:34:47;;;;;;;4.97;2.85;;;;;;;24.96;39.79;94511.81;5030911;28;20208;-84
2023/10/12 09:37:16;;;;;;;5.88;3.20;;;;;;;25.09;39.28;94503.91;5031949;28;20226;-83
2023/10/12 09:39:45;;;;;;;7.47;3.35;;;;;;;25.15;39.14;94459.03;5032191;28;20735;-84
2023/10/12 09:42:22;;;;;;;6.97;3.03;;;;;;;25.17;39.02;94462.94;5022537;28;20194;-82
2023/10/12 09:44:51;;;;;;;7.47;3.38;;;;;;;25.28;38.98;94466.13;5027526;28;20206;-83
2023/10/12 09:47:23;;;;;;;6.60;3.13;;;;;;;25.42;38.81;94467.63;5031360;28;20222;-83
2023/10/12 09:49:55;;;;;;;6.95;2.95;;;;;;;25.40;39.03;94466.41;5031087;28;20229;-83
2023/10/12 09:52:25;;;;;;;6.32;3.40;;;;;;;25.23;39.08;94451.19;5032012;28;20194;-83
2023/10/12 09:55:00;;;;;;;4.30;2.90;;;;;;;25.13;39.53;94481.16;5031452;28;20198;-84
2023/10/12 09:57:27;;;;;;;6.68;3.05;;;;;;;25.22;39.56;94483.09;5031918;28;20264;-83
2023/10/12 09:59:59;;;;;;;5.40;3.42;;;;;;;25.37;39.40;94499.41;5031701;28;20213;-85
2023/10/12 10:02:29;;;;;;;4.03;3.10;;;;;;;25.43;39.06;94468.41;5031622;28;20229;-84
2023/10/12 10:05:10;;;;;;;4.93;3.00;;;;;;;25.51;39.50;94482.75;5031294;28;20209;-84
2023/10/12 10:07:39;;;;;;;5.75;3.20;;;;;;;25.54;39.83;94492.72;5031124;28;20225;-85
2023/10/12 10:10:16;;;;;;;5.22;3.33;;;;;;;25.46;40.05;94507.38;5031503;28;20308;-84
2023/10/12 10:12:43;;;;;;;6.18;3.20;;;;;;;25.44;40.06;94507.66;5031276;28;20300;-83
2023/10/12 10:15:16;;;;;;;9.90;4.00;;;;;;;25.46;39.45;94489.69;5031030;28;20432;-85
2023/10/12 10:17:52;;;;;;;3.83;3.13;;;;;;;25.38;39.81;94508.88;5030592;28;20232;-83
2023/10/12 10:23:13;;;;;;;7.00;3.75;;;;;;;25.60;39.94;94502.84;5020213;28;20213;-83
2023/10/12 10:25:46;;;;;;;8.00;3.90;;;;;;;25.56;39.50;94494.00;5051408;28;20198;-84
2023/10/12 10:28:19;;;;;;;4.97;3.05;;;;;;;25.61;39.97;94508.88;5051507;28;20223;-85
2023/10/12 10:30:49;;;;;;;6.25;3.80;;;;;;;25.67;40.32;94542.03;5050810;28;20618;-84
2023/10/12 10:33:22;;;;;;;6.00;3.55;;;;;;;25.71;40.21;94529.81;5010491;28;20203;-84
2023/10/12 10:36:02;;;;;;;5.75;3.53;;;;;;;25.80;40.14;94544.63;5020436;28;20202;-83
2023/10/12 10:38:33;;;;;;;4.47;3.38;;;;;;;25.79;38.59;94463.94;5030906;28;20225;-85
2023/10/12 10:41:09;;;;;;;4.80;3.20;;;;;;;25.81;38.78;94432.78;5029924;28;20202;-84
2023/10/12 10:43:38;;;;;;;5.78;3.20;;;;;;;25.84;38.38;94422.72;5030522;28;20816;-85
2023/10/12 10:46:06;;;;;;;5.32;3.42;;;;;;;26.01;38.44;94418.31;5030250;28;20230;-82
2023/10/12 10:48:36;;;;;;;3.97;3.00;;;;;;;26.11;38.76;94438.41;5030195;28;20222;-84
2023/10/12 10:51:07;;;;;;;5.47;3.08;;;;;;;26.02;38.37;94435.69;5030255;28;20598;-84
2023/10/12 10:53:37;;;;;;;7.82;3.30;;;;;;;25.96;38.29;94415.03;5030263;28;20202;-83
2023/10/12 10:56:11;;;;;;;5.55;3.25;;;;;;;25.83;37.48;94387.66;5029666;28;20210;-83
2023/10/12 10:58:38;;;;;;;5.90;3.00;;;;;;;25.62;37.46;94358.34;5030193;28;20237;-84
2023/10/12 11:01:09;;;;;;;8.00;3.38;;;;;;;25.65;37.58;94359.63;5029866;28;20194;-84
2023/10/12 11:03:35;;;;;;;7.57;3.17;;;;;;;25.70;37.66;94343.69;5030174;28;20280;-84
2023/10/12 11:06:02;;;;;;;8.63;3.40;;;;;;;25.80;37.56;94333.66;5030161;28;20202;-82
2023/10/12 11:08:32;;;;;;;5.28;3.30;;;;;;;25.90;37.04;94310.75;5029884;28;20764;-83
2023/10/12 11:11:25;;;;;;;3.88;3.40;;;;;;;26.00;37.59;94336.84;5030302;28;20698;-84
2023/10/12 11:13:52;;;;;;;4.43;3.47;;;;;;;25.99;37.64;94362.44;5030947;28;20297;-84
2023/10/12 11:16:28;;;;;;;6.57;3.47;;;;;;;25.97;37.95;94374.41;5027035;28;20271;-84
2023/10/12 11:18:57;;;;;;;5.35;3.25;;;;;;;25.92;38.02;94372.66;5013477;28;20230;-84
2023/10/12 11:21:25;;;;;;;8.32;2.97;;;;;;;25.68;38.16;94361.66;5025157;28;20194;-83
2023/10/12 11:24:00;;;;;;;6.03;3.17;;;;;;;25.59;38.14;94369.50;5039149;28;20194;-84
2023/10/12 11:26:27;;;;;;;5.35;3.17;;;;;;;25.55;38.57;94388.84;5050054;28;20204;-84
2023/10/12 11:29:03;;;;;;;5.63;3.50;;;;;;;25.55;38.06;94375.66;5050010;28;20225;-84
2023/10/12 11:31:31;;;;;;;6.60;3.70;;;;;;;25.55;38.00;94349.28;5034089;28;20285;-83
2023/10/12 11:33:58;;;;;;;6.03;3.72;;;;;;;25.67;37.81;94352.97;5029647;28;20206;-83
2023/10/12 11:36:24;;;;;;;5.78;3.53;;;;;;;25.72;37.87;94338.88;5030006;28;20263;-83
2023/10/12 11:39:00;;;;;;;7.20;3.20;;;;;;;25.73;37.43;94322.00;5029516;28;20217;-85
2023/10/12 11:41:27;;;;;;;5.40;3.53;;;;;;;25.80;37.76;94328.38;5023562;28;20676;-83
2023/10/12 11:43:57;;;;;;;6.68;3.38;;;;;;;26.08;37.72;94341.38;5011814;28;20254;-84
2023/10/12 11:46:25;;;;;;;5.55;3.33;;;;;;;26.13;37.41;94318.28;5029338;28;20695;-83
2023/10/12 11:49:02;;;;;;;5.85;3.45;;;;;;;26.08;37.61;94320.28;5030124;28;20244;-83
2023/10/12 11:51:29;;;;;;;5.72;3.47;;;;;;;26.04;37.44;94329.88;5029937;28;20205;-84
2023/10/12 11:53:55;;;;;;;7.82;3.60;;;;;;;25.99;37.68;94311.53;5030604;28;20233;-85
2023/10/12 11:56:24;;;;;;;5.25;3.25;;;;;;;26.01;36.65;94264.53;5029891;28;20209;-83
2023/10/12 11:58:54;;;;;;;5.95;3.72;;;;;;;26.22;37.42;94280.59;5029858;28;20283;-85
2023/10/12 12:01:21;;;;;;;4.15;3.42;;;;;;;26.42;36.14;94245.75;5029778;28;20202;-83
2023/10/12 12:03:48;;;;;;;9.60;3.78;;;;;;;26.56;36.19;94243.72;5030041;28;20209;-85
2023/10/12 12:06:19;;;;;;;8.60;3.30;;;;;;;26.52;36.04;94224.34;5029954;28;20209;-83
2023/10/12 12:08:47;;;;;;;5.88;3.30;;;;;;;26.40;36.14;94222.28;5029773;28;20221;-84
2023/10/12 12:11:15;;;;;;;8.88;3.50;;;;;;;26.27;36.03;94188.09;5029076;28;20222;-83
2023/10/12 12:13:47;;;;;;;10.50;3.35;;;;;;;26.20;35.90;94179.84;5021454;28;20202;-82
2023/10/12 12:16:19;;;;;;;6.95;3.70;;;;;;;26.37;35.79;94193.88;5029728;28;20230;-83
2023/10/12 12:18:48;;;;;;;4.45;3.08;;;;;;;26.47;35.26;94163.75;5029612;28;20952;-85